sensor_id;sensor_type;location;lat;lon;timestamp;temperature;humidity
36292;DHT22;22327;51.208;6.418;2023-12-20T00:01:58;11.40;99.90
36292;DHT22;22327;51.208;6.418;2023-12-20T00:04:58;11.40;99.90
36292;DHT22;22327;51.208;6.418;2023-12-20T00:07:59;11.30;99.90
36292;DHT22;22327;51.208;6.418;2023-12-20T00:10:59;11.20;99.90
36292;DHT22;22327;51.208;6.418;2023-12-20T00:14:00;11.10;99.90
36292;DHT22;22327;51.208;6.418;2023-12-20T00:17:00;11.10;99.90
36292;DHT22;22327;51.208;6.418;2023-12-20T00:20:01;11.10;99.90
36292;DHT22;22327;51.208;6.418;2023-12-20T00:23:01;11.10;99.90
36292;DHT22;22327;51.208;6.418;2023-12-20T00:26:03;11.00;99.90
36292;DHT22;22327;51.208;6.418;2023-12-20T00:29:03;11.10;99.90
36292;DHT22;22327;51.208;6.418;2023-12-20T00:32:04;11.10;99.90
36292;DHT22;22327;51.208;6.418;2023-12-20T00:35:05;11.00;99.90
36292;DHT22;22327;51.208;6.418;2023-12-20T00:38:06;11.00;99.90
36292;DHT22;22327;51.208;6.418;2023-12-20T00:41:07;10.90;99.90
36292;DHT22;22327;51.208;6.418;2023-12-20T00:44:07;10.90;99.90
36292;DHT22;22327;51.208;6.418;2023-12-20T00:47:08;10.90;99.90
36292;DHT22;22327;51.208;6.418;2023-12-20T00:50:09;10.80;99.90
36292;DHT22;22327;51.208;6.418;2023-12-20T00:53:09;10.80;99.90
36292;DHT22;22327;51.208;6.418;2023-12-20T00:56:10;10.80;99.90
36292;DHT22;22327;51.208;6.418;2023-12-20T00:59:10;10.80;99.90
36292;DHT22;22327;51.208;6.418;2023-12-20T01:02:11;10.80;99.90
36292;DHT22;22327;51.208;6.418;2023-12-20T01:05:11;10.80;99.90
36292;DHT22;22327;51.208;6.418;2023-12-20T01:08:12;10.80;99.90
36292;DHT22;22327;51.208;6.418;2023-12-20T01:11:13;10.80;99.90
36292;DHT22;22327;51.208;6.418;2023-12-20T01:14:13;10.80;99.90
36292;DHT22;22327;51.208;6.418;2023-12-20T01:17:14;10.70;99.90
36292;DHT22;22327;51.208;6.418;2023-12-20T01:20:14;10.60;99.90
36292;DHT22;22327;51.208;6.418;2023-12-20T01:23:15;10.60;99.90
36292;DHT22;22327;51.208;6.418;2023-12-20T01:26:15;10.50;99.90
36292;DHT22;22327;51.208;6.418;2023-12-20T01:29:16;10.40;99.90
36292;DHT22;22327;51.208;6.418;2023-12-20T01:32:16;10.40;99.90
36292;DHT22;22327;51.208;6.418;2023-12-20T01:35:17;10.40;99.90
36292;DHT22;22327;51.208;6.418;2023-12-20T01:38:18;10.30;99.90
36292;DHT22;22327;51.208;6.418;2023-12-20T01:41:19;10.20;99.90
36292;DHT22;22327;51.208;6.418;2023-12-20T01:44:19;10.10;99.90
36292;DHT22;22327;51.208;6.418;2023-12-20T01:47:20;10.00;99.90
36292;DHT22;22327;51.208;6.418;2023-12-20T01:50:22;9.90;99.90
36292;DHT22;22327;51.208;6.418;2023-12-20T01:53:24;9.80;99.90
36292;DHT22;22327;51.208;6.418;2023-12-20T01:56:26;9.70;99.90
36292;DHT22;22327;51.208;6.418;2023-12-20T01:59:28;9.70;99.90
36292;DHT22;22327;51.208;6.418;2023-12-20T02:02:29;9.50;99.90
36292;DHT22;22327;51.208;6.418;2023-12-20T02:05:31;9.50;99.90
36292;DHT22;22327;51.208;6.418;2023-12-20T02:08:32;9.40;99.90
36292;DHT22;22327;51.208;6.418;2023-12-20T02:11:33;9.50;99.90
36292;DHT22;22327;51.208;6.418;2023-12-20T02:14:35;9.60;99.90
36292;DHT22;22327;51.208;6.418;2023-12-20T02:17:36;9.60;99.90
36292;DHT22;22327;51.208;6.418;2023-12-20T02:20:38;9.60;99.90
36292;DHT22;22327;51.208;6.418;2023-12-20T02:23:39;9.60;99.90
36292;DHT22;22327;51.208;6.418;2023-12-20T02:26:40;9.50;99.90
36292;DHT22;22327;51.208;6.418;2023-12-20T02:29:40;9.40;99.90
36292;DHT22;22327;51.208;6.418;2023-12-20T02:32:41;9.40;99.90
36292;DHT22;22327;51.208;6.418;2023-12-20T02:35:41;9.40;99.90
36292;DHT22;22327;51.208;6.418;2023-12-20T02:38:42;9.40;99.90
36292;DHT22;22327;51.208;6.418;2023-12-20T02:41:42;9.40;99.90
36292;DHT22;22327;51.208;6.418;2023-12-20T02:44:43;9.50;99.90
36292;DHT22;22327;51.208;6.418;2023-12-20T02:47:44;9.50;99.90
36292;DHT22;22327;51.208;6.418;2023-12-20T02:50:46;9.50;99.90
36292;DHT22;22327;51.208;6.418;2023-12-20T02:53:48;9.40;99.90
36292;DHT22;22327;51.208;6.418;2023-12-20T02:56:48;9.40;99.90
36292;DHT22;22327;51.208;6.418;2023-12-20T02:59:49;9.40;99.90
36292;DHT22;22327;51.208;6.418;2023-12-20T03:02:50;9.30;99.90
36292;DHT22;22327;51.208;6.418;2023-12-20T03:05:50;9.20;99.90
36292;DHT22;22327;51.208;6.418;2023-12-20T03:08:51;9.20;99.90
36292;DHT22;22327;51.208;6.418;2023-12-20T03:11:51;9.20;99.90
36292;DHT22;22327;51.208;6.418;2023-12-20T03:14:52;9.10;99.90
36292;DHT22;22327;51.208;6.418;2023-12-20T03:17:52;9.10;99.90
36292;DHT22;22327;51.208;6.418;2023-12-20T03:20:53;9.10;99.90
36292;DHT22;22327;51.208;6.418;2023-12-20T03:23:53;9.10;99.90
36292;DHT22;22327;51.208;6.418;2023-12-20T03:26:54;9.10;99.90
36292;DHT22;22327;51.208;6.418;2023-12-20T03:29:54;9.10;99.90
36292;DHT22;22327;51.208;6.418;2023-12-20T03:32:54;9.20;99.90
36292;DHT22;22327;51.208;6.418;2023-12-20T03:35:55;9.10;99.90
36292;DHT22;22327;51.208;6.418;2023-12-20T03:38:56;9.20;99.90
36292;DHT22;22327;51.208;6.418;2023-12-20T03:41:56;9.10;99.90
36292;DHT22;22327;51.208;6.418;2023-12-20T03:44:57;9.10;99.90
36292;DHT22;22327;51.208;6.418;2023-12-20T03:47:57;9.20;99.90
36292;DHT22;22327;51.208;6.418;2023-12-20T03:50:58;9.10;99.90
36292;DHT22;22327;51.208;6.418;2023-12-20T03:53:58;9.10;99.90
36292;DHT22;22327;51.208;6.418;2023-12-20T03:56:59;9.10;99.90
36292;DHT22;22327;51.208;6.418;2023-12-20T03:59:59;9.00;99.90
36292;DHT22;22327;51.208;6.418;2023-12-20T04:03:00;9.00;99.90
36292;DHT22;22327;51.208;6.418;2023-12-20T04:06:00;8.90;99.90
36292;DHT22;22327;51.208;6.418;2023-12-20T04:09:01;8.90;99.90
36292;DHT22;22327;51.208;6.418;2023-12-20T04:12:02;8.80;99.90
36292;DHT22;22327;51.208;6.418;2023-12-20T04:15:03;8.70;99.90
36292;DHT22;22327;51.208;6.418;2023-12-20T04:18:09;8.70;99.90
36292;DHT22;22327;51.208;6.418;2023-12-20T04:21:10;8.70;99.90
36292;DHT22;22327;51.208;6.418;2023-12-20T04:24:11;8.60;99.90
36292;DHT22;22327;51.208;6.418;2023-12-20T04:27:11;8.60;99.90
36292;DHT22;22327;51.208;6.418;2023-12-20T04:30:12;8.60;99.90
36292;DHT22;22327;51.208;6.418;2023-12-20T04:33:13;8.60;99.90
36292;DHT22;22327;51.208;6.418;2023-12-20T04:36:13;8.60;99.90
36292;DHT22;22327;51.208;6.418;2023-12-20T04:39:14;8.60;99.90
36292;DHT22;22327;51.208;6.418;2023-12-20T04:42:15;8.60;99.90
36292;DHT22;22327;51.208;6.418;2023-12-20T04:45:15;8.60;99.90
36292;DHT22;22327;51.208;6.418;2023-12-20T04:48:17;8.60;99.90
36292;DHT22;22327;51.208;6.418;2023-12-20T04:51:17;8.50;99.90
36292;DHT22;22327;51.208;6.418;2023-12-20T04:54:18;8.60;99.90
36292;DHT22;22327;51.208;6.418;2023-12-20T04:57:18;8.60;99.90
36292;DHT22;22327;51.208;6.418;2023-12-20T05:00:19;8.60;99.90
36292;DHT22;22327;51.208;6.418;2023-12-20T05:03:20;8.70;99.90
36292;DHT22;22327;51.208;6.418;2023-12-20T05:06:20;8.70;99.90
36292;DHT22;22327;51.208;6.418;2023-12-20T05:09:21;8.80;99.90
36292;DHT22;22327;51.208;6.418;2023-12-20T05:12:21;8.90;99.90
36292;DHT22;22327;51.208;6.418;2023-12-20T05:15:21;9.00;99.90
36292;DHT22;22327;51.208;6.418;2023-12-20T05:18:22;9.20;99.90
36292;DHT22;22327;51.208;6.418;2023-12-20T05:21:23;9.40;99.90
36292;DHT22;22327;51.208;6.418;2023-12-20T05:24:23;9.50;99.90
36292;DHT22;22327;51.208;6.418;2023-12-20T05:27:24;9.60;99.90
36292;DHT22;22327;51.208;6.418;2023-12-20T05:30:24;9.70;99.90
36292;DHT22;22327;51.208;6.418;2023-12-20T05:33:25;9.80;99.90
36292;DHT22;22327;51.208;6.418;2023-12-20T05:36:26;9.90;99.90
36292;DHT22;22327;51.208;6.418;2023-12-20T05:39:26;10.00;99.90
36292;DHT22;22327;51.208;6.418;2023-12-20T05:42:27;10.00;99.90
36292;DHT22;22327;51.208;6.418;2023-12-20T05:45:27;10.10;99.90
36292;DHT22;22327;51.208;6.418;2023-12-20T05:48:28;10.10;99.90
36292;DHT22;22327;51.208;6.418;2023-12-20T05:51:28;10.20;99.90
36292;DHT22;22327;51.208;6.418;2023-12-20T05:54:29;10.20;99.90
36292;DHT22;22327;51.208;6.418;2023-12-20T05:57:29;10.20;99.90
36292;DHT22;22327;51.208;6.418;2023-12-20T06:00:30;10.20;99.90
36292;DHT22;22327;51.208;6.418;2023-12-20T06:03:31;10.10;99.90
36292;DHT22;22327;51.208;6.418;2023-12-20T06:06:31;10.10;99.90
36292;DHT22;22327;51.208;6.418;2023-12-20T06:09:32;10.10;99.90
36292;DHT22;22327;51.208;6.418;2023-12-20T06:12:32;10.10;99.90
36292;DHT22;22327;51.208;6.418;2023-12-20T06:15:36;10.20;99.90
36292;DHT22;22327;51.208;6.418;2023-12-20T06:18:36;10.10;99.90
36292;DHT22;22327;51.208;6.418;2023-12-20T06:21:37;10.10;99.90
36292;DHT22;22327;51.208;6.418;2023-12-20T06:24:37;10.10;99.90
36292;DHT22;22327;51.208;6.418;2023-12-20T06:27:38;10.10;99.90
36292;DHT22;22327;51.208;6.418;2023-12-20T06:30:38;10.20;99.90
36292;DHT22;22327;51.208;6.418;2023-12-20T06:33:39;10.20;99.90
36292;DHT22;22327;51.208;6.418;2023-12-20T06:36:41;10.30;99.90
36292;DHT22;22327;51.208;6.418;2023-12-20T06:39:42;10.30;99.90
36292;DHT22;22327;51.208;6.418;2023-12-20T06:42:42;10.30;99.90
36292;DHT22;22327;51.208;6.418;2023-12-20T06:45:43;10.30;99.90
36292;DHT22;22327;51.208;6.418;2023-12-20T06:48:43;10.30;99.90
36292;DHT22;22327;51.208;6.418;2023-12-20T06:51:44;10.30;99.90
36292;DHT22;22327;51.208;6.418;2023-12-20T06:54:44;10.30;99.90
36292;DHT22;22327;51.208;6.418;2023-12-20T06:57:45;10.40;99.90
36292;DHT22;22327;51.208;6.418;2023-12-20T07:00:45;10.30;99.90
36292;DHT22;22327;51.208;6.418;2023-12-20T07:03:46;10.30;99.90
36292;DHT22;22327;51.208;6.418;2023-12-20T07:06:46;10.30;99.90
36292;DHT22;22327;51.208;6.418;2023-12-20T07:09:47;10.30;99.90
36292;DHT22;22327;51.208;6.418;2023-12-20T07:12:48;10.30;99.90
36292;DHT22;22327;51.208;6.418;2023-12-20T07:15:49;10.30;99.90
36292;DHT22;22327;51.208;6.418;2023-12-20T07:18:49;10.40;99.90
36292;DHT22;22327;51.208;6.418;2023-12-20T07:21:50;10.40;99.90
36292;DHT22;22327;51.208;6.418;2023-12-20T07:24:50;10.40;99.90
36292;DHT22;22327;51.208;6.418;2023-12-20T07:27:52;10.40;99.90
36292;DHT22;22327;51.208;6.418;2023-12-20T07:30:53;10.40;99.90
36292;DHT22;22327;51.208;6.418;2023-12-20T07:33:53;10.40;99.90
36292;DHT22;22327;51.208;6.418;2023-12-20T07:36:54;10.50;99.90
36292;DHT22;22327;51.208;6.418;2023-12-20T07:39:54;10.40;99.90
36292;DHT22;22327;51.208;6.418;2023-12-20T07:42:55;10.40;99.90
36292;DHT22;22327;51.208;6.418;2023-12-20T07:45:55;10.40;99.90
36292;DHT22;22327;51.208;6.418;2023-12-20T07:48:56;10.40;99.90
36292;DHT22;22327;51.208;6.418;2023-12-20T07:51:56;10.40;99.90
36292;DHT22;22327;51.208;6.418;2023-12-20T07:54:57;10.40;99.90
36292;DHT22;22327;51.208;6.418;2023-12-20T07:57:58;10.40;99.90
36292;DHT22;22327;51.208;6.418;2023-12-20T08:00:58;10.40;99.90
36292;DHT22;22327;51.208;6.418;2023-12-20T08:03:59;10.40;99.90
36292;DHT22;22327;51.208;6.418;2023-12-20T08:06:59;10.40;99.90
36292;DHT22;22327;51.208;6.418;2023-12-20T08:10:00;10.30;99.90
36292;DHT22;22327;51.208;6.418;2023-12-20T08:13:01;10.30;99.90
36292;DHT22;22327;51.208;6.418;2023-12-20T08:16:01;10.30;99.90
36292;DHT22;22327;51.208;6.418;2023-12-20T08:19:03;10.40;99.90
36292;DHT22;22327;51.208;6.418;2023-12-20T08:22:03;10.30;99.90
36292;DHT22;22327;51.208;6.418;2023-12-20T08:25:04;10.30;99.90
36292;DHT22;22327;51.208;6.418;2023-12-20T08:28:05;10.30;99.90
36292;DHT22;22327;51.208;6.418;2023-12-20T08:31:05;10.30;99.90
36292;DHT22;22327;51.208;6.418;2023-12-20T08:34:06;10.30;99.90
36292;DHT22;22327;51.208;6.418;2023-12-20T08:37:06;10.30;99.90
36292;DHT22;22327;51.208;6.418;2023-12-20T08:40:07;10.30;99.90
36292;DHT22;22327;51.208;6.418;2023-12-20T08:43:08;10.30;99.90
36292;DHT22;22327;51.208;6.418;2023-12-20T08:46:09;10.40;99.90
36292;DHT22;22327;51.208;6.418;2023-12-20T08:49:15;10.40;99.90
36292;DHT22;22327;51.208;6.418;2023-12-20T08:52:15;10.50;99.90
36292;DHT22;22327;51.208;6.418;2023-12-20T08:55:16;10.30;99.90
36292;DHT22;22327;51.208;6.418;2023-12-20T08:58:18;10.40;99.90
36292;DHT22;22327;51.208;6.418;2023-12-20T09:01:18;10.40;99.90
36292;DHT22;22327;51.208;6.418;2023-12-20T09:04:19;10.50;99.90
36292;DHT22;22327;51.208;6.418;2023-12-20T09:07:24;10.50;99.90
36292;DHT22;22327;51.208;6.418;2023-12-20T09:10:25;10.50;99.90
36292;DHT22;22327;51.208;6.418;2023-12-20T09:13:25;10.50;99.90
36292;DHT22;22327;51.208;6.418;2023-12-20T09:16:29;10.50;99.90
36292;DHT22;22327;51.208;6.418;2023-12-20T09:19:29;10.60;99.90
36292;DHT22;22327;51.208;6.418;2023-12-20T09:22:30;10.60;99.90
36292;DHT22;22327;51.208;6.418;2023-12-20T09:25:30;10.60;99.90
36292;DHT22;22327;51.208;6.418;2023-12-20T09:28:31;10.60;99.90
36292;DHT22;22327;51.208;6.418;2023-12-20T09:31:37;10.60;99.90
36292;DHT22;22327;51.208;6.418;2023-12-20T09:34:37;10.70;99.90
36292;DHT22;22327;51.208;6.418;2023-12-20T09:37:38;10.70;99.90
36292;DHT22;22327;51.208;6.418;2023-12-20T09:40:41;10.70;99.90
36292;DHT22;22327;51.208;6.418;2023-12-20T09:43:42;10.80;99.90
36292;DHT22;22327;51.208;6.418;2023-12-20T09:46:44;10.90;99.90
36292;DHT22;22327;51.208;6.418;2023-12-20T09:49:46;10.90;99.90
36292;DHT22;22327;51.208;6.418;2023-12-20T09:52:50;10.90;99.90
36292;DHT22;22327;51.208;6.418;2023-12-20T09:55:52;10.90;99.90
36292;DHT22;22327;51.208;6.418;2023-12-20T09:58:53;10.90;99.90
36292;DHT22;22327;51.208;6.418;2023-12-20T10:01:55;10.90;99.90
36292;DHT22;22327;51.208;6.418;2023-12-20T10:04:57;10.90;99.90
36292;DHT22;22327;51.208;6.418;2023-12-20T10:07:58;10.90;99.90
36292;DHT22;22327;51.208;6.418;2023-12-20T10:10:59;11.00;99.90
36292;DHT22;22327;51.208;6.418;2023-12-20T10:14:03;11.10;99.90
36292;DHT22;22327;51.208;6.418;2023-12-20T10:17:05;11.10;99.90
36292;DHT22;22327;51.208;6.418;2023-12-20T10:20:06;11.00;99.90
36292;DHT22;22327;51.208;6.418;2023-12-20T10:23:10;11.00;99.90
36292;DHT22;22327;51.208;6.418;2023-12-20T10:26:22;11.00;99.90
36292;DHT22;22327;51.208;6.418;2023-12-20T10:29:23;11.00;99.90
36292;DHT22;22327;51.208;6.418;2023-12-20T10:32:27;11.10;99.90
36292;DHT22;22327;51.208;6.418;2023-12-20T10:35:27;11.20;99.90
36292;DHT22;22327;51.208;6.418;2023-12-20T10:38:28;11.20;99.90
36292;DHT22;22327;51.208;6.418;2023-12-20T10:41:32;11.20;99.90
36292;DHT22;22327;51.208;6.418;2023-12-20T10:44:33;11.20;99.90
36292;DHT22;22327;51.208;6.418;2023-12-20T10:47:34;11.30;99.90
36292;DHT22;22327;51.208;6.418;2023-12-20T10:50:36;11.20;99.90
36292;DHT22;22327;51.208;6.418;2023-12-20T10:53:39;11.20;99.90
36292;DHT22;22327;51.208;6.418;2023-12-20T10:56:41;11.20;99.90
36292;DHT22;22327;51.208;6.418;2023-12-20T10:59:43;11.30;99.90
36292;DHT22;22327;51.208;6.418;2023-12-20T11:02:49;11.40;99.90
36292;DHT22;22327;51.208;6.418;2023-12-20T11:05:55;11.40;99.90
36292;DHT22;22327;51.208;6.418;2023-12-20T11:09:22;11.40;99.90
36292;DHT22;22327;51.208;6.418;2023-12-20T11:12:39;11.40;99.90
36292;DHT22;22327;51.208;6.418;2023-12-20T11:15:44;11.40;99.90
36292;DHT22;22327;51.208;6.418;2023-12-20T11:18:45;11.30;99.90
36292;DHT22;22327;51.208;6.418;2023-12-20T11:21:46;11.30;99.90
36292;DHT22;22327;51.208;6.418;2023-12-20T11:24:48;11.30;99.90
36292;DHT22;22327;51.208;6.418;2023-12-20T11:28:08;11.30;99.90
36292;DHT22;22327;51.208;6.418;2023-12-20T11:31:14;11.30;99.90
36292;DHT22;22327;51.208;6.418;2023-12-20T11:34:17;11.30;99.90
36292;DHT22;22327;51.208;6.418;2023-12-20T11:37:20;11.30;99.90
36292;DHT22;22327;51.208;6.418;2023-12-20T11:40:20;11.30;99.90
36292;DHT22;22327;51.208;6.418;2023-12-20T11:43:36;11.20;99.90
36292;DHT22;22327;51.208;6.418;2023-12-20T11:46:37;11.30;99.90
36292;DHT22;22327;51.208;6.418;2023-12-20T11:49:37;11.30;99.90
36292;DHT22;22327;51.208;6.418;2023-12-20T11:52:38;11.30;99.90
36292;DHT22;22327;51.208;6.418;2023-12-20T11:55:38;11.20;99.90
36292;DHT22;22327;51.208;6.418;2023-12-20T11:58:39;11.20;99.90
36292;DHT22;22327;51.208;6.418;2023-12-20T12:01:39;11.20;99.90
36292;DHT22;22327;51.208;6.418;2023-12-20T12:04:43;11.30;99.90
36292;DHT22;22327;51.208;6.418;2023-12-20T12:07:44;11.50;99.90
36292;DHT22;22327;51.208;6.418;2023-12-20T12:10:45;11.50;99.90
36292;DHT22;22327;51.208;6.418;2023-12-20T12:13:45;11.60;99.90
36292;DHT22;22327;51.208;6.418;2023-12-20T12:16:46;11.60;99.90
36292;DHT22;22327;51.208;6.418;2023-12-20T12:19:47;11.60;99.90
36292;DHT22;22327;51.208;6.418;2023-12-20T12:22:58;11.60;99.90
36292;DHT22;22327;51.208;6.418;2023-12-20T12:25:59;11.70;99.90
36292;DHT22;22327;51.208;6.418;2023-12-20T12:28:59;11.70;99.90
36292;DHT22;22327;51.208;6.418;2023-12-20T12:32:00;11.70;99.90
36292;DHT22;22327;51.208;6.418;2023-12-20T12:35:03;11.60;99.90
36292;DHT22;22327;51.208;6.418;2023-12-20T12:38:07;11.60;99.90
36292;DHT22;22327;51.208;6.418;2023-12-20T12:41:08;11.60;99.90
36292;DHT22;22327;51.208;6.418;2023-12-20T12:44:10;11.50;99.90
36292;DHT22;22327;51.208;6.418;2023-12-20T12:47:11;11.50;99.90
36292;DHT22;22327;51.208;6.418;2023-12-20T12:50:11;11.40;99.90
36292;DHT22;22327;51.208;6.418;2023-12-20T12:53:12;11.40;99.90
36292;DHT22;22327;51.208;6.418;2023-12-20T12:56:13;11.50;99.90
36292;DHT22;22327;51.208;6.418;2023-12-20T12:59:14;11.50;99.90
36292;DHT22;22327;51.208;6.418;2023-12-20T13:02:14;11.40;99.90
36292;DHT22;22327;51.208;6.418;2023-12-20T13:05:15;11.40;99.90
36292;DHT22;22327;51.208;6.418;2023-12-20T13:08:16;11.40;99.90
36292;DHT22;22327;51.208;6.418;2023-12-20T13:11:16;11.40;99.90
36292;DHT22;22327;51.208;6.418;2023-12-20T13:14:17;11.30;99.90
36292;DHT22;22327;51.208;6.418;2023-12-20T13:17:17;11.30;99.90
36292;DHT22;22327;51.208;6.418;2023-12-20T13:20:18;11.30;99.90
36292;DHT22;22327;51.208;6.418;2023-12-20T13:23:18;11.20;99.90
36292;DHT22;22327;51.208;6.418;2023-12-20T13:26:19;11.20;99.90
36292;DHT22;22327;51.208;6.418;2023-12-20T13:29:19;11.20;99.90
36292;DHT22;22327;51.208;6.418;2023-12-20T13:32:20;11.10;99.90
36292;DHT22;22327;51.208;6.418;2023-12-20T13:35:20;11.10;99.90
36292;DHT22;22327;51.208;6.418;2023-12-20T13:38:21;11.10;99.90
36292;DHT22;22327;51.208;6.418;2023-12-20T13:41:21;11.10;99.90
36292;DHT22;22327;51.208;6.418;2023-12-20T13:44:22;11.00;99.90
36292;DHT22;22327;51.208;6.418;2023-12-20T13:47:22;11.00;99.90
36292;DHT22;22327;51.208;6.418;2023-12-20T13:50:23;11.00;99.90
36292;DHT22;22327;51.208;6.418;2023-12-20T13:53:23;11.10;99.90
36292;DHT22;22327;51.208;6.418;2023-12-20T13:56:24;11.10;99.90
36292;DHT22;22327;51.208;6.418;2023-12-20T13:59:25;11.20;99.90
36292;DHT22;22327;51.208;6.418;2023-12-20T14:02:26;11.30;99.90
36292;DHT22;22327;51.208;6.418;2023-12-20T14:05:27;11.30;99.90
36292;DHT22;22327;51.208;6.418;2023-12-20T14:08:28;11.30;99.90
36292;DHT22;22327;51.208;6.418;2023-12-20T14:11:29;11.30;99.90
36292;DHT22;22327;51.208;6.418;2023-12-20T14:14:29;11.40;99.90
36292;DHT22;22327;51.208;6.418;2023-12-20T14:17:30;11.40;99.90
36292;DHT22;22327;51.208;6.418;2023-12-20T14:20:32;11.40;99.90
36292;DHT22;22327;51.208;6.418;2023-12-20T14:23:34;11.50;99.90
36292;DHT22;22327;51.208;6.418;2023-12-20T14:26:35;11.60;99.90
36292;DHT22;22327;51.208;6.418;2023-12-20T14:29:37;11.70;99.90
36292;DHT22;22327;51.208;6.418;2023-12-20T14:32:38;11.70;99.90
36292;DHT22;22327;51.208;6.418;2023-12-20T14:35:38;11.70;99.90
36292;DHT22;22327;51.208;6.418;2023-12-20T14:38:39;11.70;99.90
36292;DHT22;22327;51.208;6.418;2023-12-20T14:41:39;11.70;99.90
36292;DHT22;22327;51.208;6.418;2023-12-20T14:44:40;11.70;99.90
36292;DHT22;22327;51.208;6.418;2023-12-20T14:47:42;11.80;99.90
36292;DHT22;22327;51.208;6.418;2023-12-20T14:50:43;11.70;99.90
36292;DHT22;22327;51.208;6.418;2023-12-20T14:53:44;11.70;99.90
36292;DHT22;22327;51.208;6.418;2023-12-20T14:56:44;11.80;99.90
36292;DHT22;22327;51.208;6.418;2023-12-20T14:59:46;11.80;99.90
36292;DHT22;22327;51.208;6.418;2023-12-20T15:02:47;11.80;99.90
36292;DHT22;22327;51.208;6.418;2023-12-20T15:05:48;11.80;99.90
36292;DHT22;22327;51.208;6.418;2023-12-20T15:08:48;11.80;99.90
36292;DHT22;22327;51.208;6.418;2023-12-20T15:11:49;11.80;99.90
36292;DHT22;22327;51.208;6.418;2023-12-20T15:14:49;11.80;99.90
36292;DHT22;22327;51.208;6.418;2023-12-20T15:17:50;11.80;99.90
36292;DHT22;22327;51.208;6.418;2023-12-20T15:20:50;11.80;99.90
36292;DHT22;22327;51.208;6.418;2023-12-20T15:23:51;11.80;99.90
36292;DHT22;22327;51.208;6.418;2023-12-20T15:26:55;11.80;99.90
36292;DHT22;22327;51.208;6.418;2023-12-20T15:29:56;11.80;99.90
36292;DHT22;22327;51.208;6.418;2023-12-20T15:32:56;11.80;99.90
36292;DHT22;22327;51.208;6.418;2023-12-20T15:35:57;11.80;99.90
36292;DHT22;22327;51.208;6.418;2023-12-20T15:38:57;11.90;99.90
36292;DHT22;22327;51.208;6.418;2023-12-20T15:41:58;11.90;99.90
36292;DHT22;22327;51.208;6.418;2023-12-20T15:44:58;12.20;99.90
36292;DHT22;22327;51.208;6.418;2023-12-20T15:47:59;12.20;99.90
36292;DHT22;22327;51.208;6.418;2023-12-20T15:51:07;12.20;99.90
36292;DHT22;22327;51.208;6.418;2023-12-20T15:54:08;12.10;99.90
36292;DHT22;22327;51.208;6.418;2023-12-20T15:57:08;12.00;99.90
36292;DHT22;22327;51.208;6.418;2023-12-20T16:00:10;11.90;99.90
36292;DHT22;22327;51.208;6.418;2023-12-20T16:03:11;11.90;99.90
36292;DHT22;22327;51.208;6.418;2023-12-20T16:06:12;11.90;99.90
36292;DHT22;22327;51.208;6.418;2023-12-20T16:09:12;11.80;99.90
36292;DHT22;22327;51.208;6.418;2023-12-20T16:12:13;11.90;99.90
36292;DHT22;22327;51.208;6.418;2023-12-20T16:15:13;11.90;99.90
36292;DHT22;22327;51.208;6.418;2023-12-20T16:18:14;11.90;99.90
36292;DHT22;22327;51.208;6.418;2023-12-20T16:21:14;11.90;99.90
36292;DHT22;22327;51.208;6.418;2023-12-20T16:24:15;11.90;99.90
36292;DHT22;22327;51.208;6.418;2023-12-20T16:27:15;11.90;99.90
36292;DHT22;22327;51.208;6.418;2023-12-20T16:30:16;12.00;99.90
36292;DHT22;22327;51.208;6.418;2023-12-20T16:33:17;12.00;99.90
36292;DHT22;22327;51.208;6.418;2023-12-20T16:36:17;12.00;99.90
36292;DHT22;22327;51.208;6.418;2023-12-20T16:39:19;12.10;99.90
36292;DHT22;22327;51.208;6.418;2023-12-20T16:42:20;12.10;99.90
36292;DHT22;22327;51.208;6.418;2023-12-20T16:45:21;12.00;99.90
36292;DHT22;22327;51.208;6.418;2023-12-20T16:48:22;12.00;99.90
36292;DHT22;22327;51.208;6.418;2023-12-20T16:51:22;12.00;99.90
36292;DHT22;22327;51.208;6.418;2023-12-20T16:54:23;12.10;99.90
36292;DHT22;22327;51.208;6.418;2023-12-20T16:57:24;12.10;99.90
36292;DHT22;22327;51.208;6.418;2023-12-20T17:00:24;12.10;99.90
36292;DHT22;22327;51.208;6.418;2023-12-20T17:03:26;12.10;99.90
36292;DHT22;22327;51.208;6.418;2023-12-20T17:06:27;12.10;99.90
36292;DHT22;22327;51.208;6.418;2023-12-20T17:09:28;12.50;99.90
36292;DHT22;22327;51.208;6.418;2023-12-20T17:12:29;12.50;99.90
36292;DHT22;22327;51.208;6.418;2023-12-20T17:15:29;12.40;99.90
36292;DHT22;22327;51.208;6.418;2023-12-20T17:18:30;12.40;99.90
36292;DHT22;22327;51.208;6.418;2023-12-20T17:21:31;12.30;99.90
36292;DHT22;22327;51.208;6.418;2023-12-20T17:24:31;12.20;99.90
36292;DHT22;22327;51.208;6.418;2023-12-20T17:27:32;12.10;99.90
36292;DHT22;22327;51.208;6.418;2023-12-20T17:30:32;12.20;99.90
36292;DHT22;22327;51.208;6.418;2023-12-20T17:33:33;12.10;99.90
36292;DHT22;22327;51.208;6.418;2023-12-20T17:36:34;12.10;99.90
36292;DHT22;22327;51.208;6.418;2023-12-20T17:39:34;12.40;99.90
36292;DHT22;22327;51.208;6.418;2023-12-20T17:42:35;12.50;99.90
36292;DHT22;22327;51.208;6.418;2023-12-20T17:45:37;12.60;99.90
36292;DHT22;22327;51.208;6.418;2023-12-20T17:48:37;12.60;99.90
36292;DHT22;22327;51.208;6.418;2023-12-20T17:51:38;12.50;99.90
36292;DHT22;22327;51.208;6.418;2023-12-20T17:54:38;12.40;99.90
36292;DHT22;22327;51.208;6.418;2023-12-20T17:57:39;12.40;99.90
36292;DHT22;22327;51.208;6.418;2023-12-20T18:00:40;12.30;99.90
36292;DHT22;22327;51.208;6.418;2023-12-20T18:03:41;12.30;99.90
36292;DHT22;22327;51.208;6.418;2023-12-20T18:06:42;12.30;99.90
36292;DHT22;22327;51.208;6.418;2023-12-20T18:09:43;12.30;99.90
36292;DHT22;22327;51.208;6.418;2023-12-20T18:12:43;12.40;99.90
36292;DHT22;22327;51.208;6.418;2023-12-20T18:15:44;12.40;99.90
36292;DHT22;22327;51.208;6.418;2023-12-20T18:18:44;12.50;99.90
36292;DHT22;22327;51.208;6.418;2023-12-20T18:21:45;12.40;99.90
36292;DHT22;22327;51.208;6.418;2023-12-20T18:24:45;12.40;99.90
36292;DHT22;22327;51.208;6.418;2023-12-20T18:27:46;12.50;99.90
36292;DHT22;22327;51.208;6.418;2023-12-20T18:30:47;12.50;99.90
36292;DHT22;22327;51.208;6.418;2023-12-20T18:33:47;12.50;99.90
36292;DHT22;22327;51.208;6.418;2023-12-20T18:36:48;12.50;99.90
36292;DHT22;22327;51.208;6.418;2023-12-20T18:39:48;12.50;99.90
36292;DHT22;22327;51.208;6.418;2023-12-20T18:42:51;12.40;99.90
36292;DHT22;22327;51.208;6.418;2023-12-20T18:45:52;12.40;99.90
36292;DHT22;22327;51.208;6.418;2023-12-20T18:48:53;12.40;99.90
36292;DHT22;22327;51.208;6.418;2023-12-20T18:51:53;12.40;99.90
36292;DHT22;22327;51.208;6.418;2023-12-20T18:54:54;12.40;99.90
36292;DHT22;22327;51.208;6.418;2023-12-20T18:57:54;12.40;99.90
36292;DHT22;22327;51.208;6.418;2023-12-20T19:00:55;12.40;99.90
36292;DHT22;22327;51.208;6.418;2023-12-20T19:03:56;12.40;99.90
36292;DHT22;22327;51.208;6.418;2023-12-20T19:06:57;12.40;99.90
36292;DHT22;22327;51.208;6.418;2023-12-20T19:09:58;12.40;99.90